sensor_id;sensor_type;location;lat;lon;timestamp;temperature;humidity
39875;DHT22;25547;52.530;13.194;2023-03-29T00:01:27;4.20;99.90
39875;DHT22;25547;52.530;13.194;2023-03-29T00:03:57;4.30;99.90
39875;DHT22;25547;52.530;13.194;2023-03-29T00:06:24;4.30;99.90
39875;DHT22;25547;52.530;13.194;2023-03-29T00:08:55;4.30;99.90
39875;DHT22;25547;52.530;13.194;2023-03-29T00:11:21;4.40;99.90
39875;DHT22;25547;52.530;13.194;2023-03-29T00:13:50;4.40;99.90
39875;DHT22;25547;52.530;13.194;2023-03-29T00:16:15;4.30;99.90
39875;DHT22;25547;52.530;13.194;2023-03-29T00:18:42;4.30;99.90
39875;DHT22;25547;52.530;13.194;2023-03-29T00:21:07;4.30;99.90
39875;DHT22;25547;52.530;13.194;2023-03-29T00:23:33;4.20;99.90
39875;DHT22;25547;52.530;13.194;2023-03-29T00:25:59;4.20;99.90
39875;DHT22;25547;52.530;13.194;2023-03-29T00:28:27;4.20;99.90
39875;DHT22;25547;52.530;13.194;2023-03-29T00:30:53;4.10;99.90
39875;DHT22;25547;52.530;13.194;2023-03-29T00:33:21;4.10;99.90
39875;DHT22;25547;52.530;13.194;2023-03-29T00:35:47;4.10;99.90
39875;DHT22;25547;52.530;13.194;2023-03-29T00:38:15;4.10;99.90
39875;DHT22;25547;52.530;13.194;2023-03-29T00:40:43;4.10;99.90
39875;DHT22;25547;52.530;13.194;2023-03-29T00:43:10;4.10;99.90
39875;DHT22;25547;52.530;13.194;2023-03-29T00:45:39;4.20;99.90
39875;DHT22;25547;52.530;13.194;2023-03-29T00:48:11;4.20;99.90
39875;DHT22;25547;52.530;13.194;2023-03-29T00:50:41;4.20;99.90
39875;DHT22;25547;52.530;13.194;2023-03-29T00:55:46;4.30;99.90
39875;DHT22;25547;52.530;13.194;2023-03-29T00:58:16;4.30;99.90
39875;DHT22;25547;52.530;13.194;2023-03-29T01:01:02;4.40;99.90
39875;DHT22;25547;52.530;13.194;2023-03-29T01:03:33;4.40;99.90
39875;DHT22;25547;52.530;13.194;2023-03-29T01:06:04;4.40;99.90
39875;DHT22;25547;52.530;13.194;2023-03-29T01:08:38;4.40;99.90
39875;DHT22;25547;52.530;13.194;2023-03-29T01:11:13;4.30;99.90
39875;DHT22;25547;52.530;13.194;2023-03-29T01:13:50;4.40;99.90
39875;DHT22;25547;52.530;13.194;2023-03-29T01:16:19;4.40;99.90
39875;DHT22;25547;52.530;13.194;2023-03-29T01:18:46;4.40;99.90
39875;DHT22;25547;52.530;13.194;2023-03-29T01:21:59;4.30;99.90
39875;DHT22;25547;52.530;13.194;2023-03-29T01:30:10;4.20;99.90
39875;DHT22;25547;52.530;13.194;2023-03-29T01:32:49;4.10;99.90
39875;DHT22;25547;52.530;13.194;2023-03-29T01:35:45;4.10;99.90
39875;DHT22;25547;52.530;13.194;2023-03-29T01:38:29;4.10;99.90
39875;DHT22;25547;52.530;13.194;2023-03-29T01:40:58;4.00;99.90
39875;DHT22;25547;52.530;13.194;2023-03-29T01:43:49;4.00;99.90
39875;DHT22;25547;52.530;13.194;2023-03-29T01:46:23;4.00;99.90
39875;DHT22;25547;52.530;13.194;2023-03-29T01:49:07;4.00;99.80
39875;DHT22;25547;52.530;13.194;2023-03-29T01:51:48;4.00;99.70
39875;DHT22;25547;52.530;13.194;2023-03-29T01:54:34;4.00;99.60
39875;DHT22;25547;52.530;13.194;2023-03-29T01:57:01;4.00;99.60
39875;DHT22;25547;52.530;13.194;2023-03-29T01:59:33;4.00;99.50
39875;DHT22;25547;52.530;13.194;2023-03-29T02:02:03;4.00;99.30
39875;DHT22;25547;52.530;13.194;2023-03-29T02:04:32;4.00;99.30
39875;DHT22;25547;52.530;13.194;2023-03-29T02:07:04;4.10;99.20
39875;DHT22;25547;52.530;13.194;2023-03-29T02:09:32;4.10;99.10
39875;DHT22;25547;52.530;13.194;2023-03-29T02:12:00;4.10;99.00
39875;DHT22;25547;52.530;13.194;2023-03-29T02:14:26;4.20;98.90
39875;DHT22;25547;52.530;13.194;2023-03-29T02:16:56;4.20;98.50
39875;DHT22;25547;52.530;13.194;2023-03-29T02:19:22;4.20;98.60
39875;DHT22;25547;52.530;13.194;2023-03-29T02:21:58;4.20;98.50
39875;DHT22;25547;52.530;13.194;2023-03-29T02:24:29;4.10;98.50
39875;DHT22;25547;52.530;13.194;2023-03-29T02:26:57;4.20;98.50
39875;DHT22;25547;52.530;13.194;2023-03-29T02:29:23;4.20;98.60
39875;DHT22;25547;52.530;13.194;2023-03-29T02:31:54;4.10;98.60
39875;DHT22;25547;52.530;13.194;2023-03-29T02:34:45;4.10;98.60
39875;DHT22;25547;52.530;13.194;2023-03-29T02:37:16;4.00;98.30
39875;DHT22;25547;52.530;13.194;2023-03-29T02:39:43;4.00;98.40
39875;DHT22;25547;52.530;13.194;2023-03-29T02:42:15;3.90;98.50
39875;DHT22;25547;52.530;13.194;2023-03-29T02:44:43;3.90;98.60
39875;DHT22;25547;52.530;13.194;2023-03-29T02:47:29;3.90;98.70
39875;DHT22;25547;52.530;13.194;2023-03-29T02:49:57;3.90;98.80
39875;DHT22;25547;52.530;13.194;2023-03-29T02:52:29;3.80;98.80
39875;DHT22;25547;52.530;13.194;2023-03-29T02:54:58;3.80;98.90
39875;DHT22;25547;52.530;13.194;2023-03-29T02:57:27;3.80;99.00
39875;DHT22;25547;52.530;13.194;2023-03-29T02:59:57;3.80;99.00
39875;DHT22;25547;52.530;13.194;2023-03-29T03:02:23;3.80;99.30
39875;DHT22;25547;52.530;13.194;2023-03-29T03:04:50;3.80;99.30
39875;DHT22;25547;52.530;13.194;2023-03-29T03:07:16;3.70;99.30
39875;DHT22;25547;52.530;13.194;2023-03-29T03:09:43;3.70;99.50
39875;DHT22;25547;52.530;13.194;2023-03-29T03:12:11;3.70;99.60
39875;DHT22;25547;52.530;13.194;2023-03-29T03:14:37;3.60;99.70
39875;DHT22;25547;52.530;13.194;2023-03-29T03:17:02;3.60;99.80
39875;DHT22;25547;52.530;13.194;2023-03-29T03:19:28;3.60;99.80
39875;DHT22;25547;52.530;13.194;2023-03-29T03:21:56;3.60;99.90
39875;DHT22;25547;52.530;13.194;2023-03-29T03:24:22;3.60;99.90
39875;DHT22;25547;52.530;13.194;2023-03-29T03:26:47;3.50;99.90
39875;DHT22;25547;52.530;13.194;2023-03-29T03:29:14;3.50;99.90
39875;DHT22;25547;52.530;13.194;2023-03-29T03:31:40;3.40;99.90
39875;DHT22;25547;52.530;13.194;2023-03-29T03:34:06;3.40;99.90
39875;DHT22;25547;52.530;13.194;2023-03-29T03:36:36;3.40;99.90
39875;DHT22;25547;52.530;13.194;2023-03-29T03:39:02;3.30;99.90
39875;DHT22;25547;52.530;13.194;2023-03-29T03:41:30;3.30;99.90
39875;DHT22;25547;52.530;13.194;2023-03-29T03:43:57;3.40;99.90
39875;DHT22;25547;52.530;13.194;2023-03-29T03:46:22;3.40;99.90
39875;DHT22;25547;52.530;13.194;2023-03-29T03:48:48;3.30;99.90
39875;DHT22;25547;52.530;13.194;2023-03-29T03:51:14;3.40;99.90
39875;DHT22;25547;52.530;13.194;2023-03-29T03:53:42;3.40;99.90
39875;DHT22;25547;52.530;13.194;2023-03-29T03:56:13;3.40;99.90
39875;DHT22;25547;52.530;13.194;2023-03-29T03:58:39;3.40;99.90
39875;DHT22;25547;52.530;13.194;2023-03-29T04:01:06;3.40;99.90
39875;DHT22;25547;52.530;13.194;2023-03-29T04:03:33;3.40;99.90
39875;DHT22;25547;52.530;13.194;2023-03-29T04:05:59;3.40;99.90
39875;DHT22;25547;52.530;13.194;2023-03-29T04:08:28;3.40;99.90
39875;DHT22;25547;52.530;13.194;2023-03-29T04:10:55;3.30;99.90
39875;DHT22;25547;52.530;13.194;2023-03-29T04:13:22;3.20;99.90
39875;DHT22;25547;52.530;13.194;2023-03-29T04:15:50;3.30;99.90
39875;DHT22;25547;52.530;13.194;2023-03-29T04:18:20;3.20;99.90
39875;DHT22;25547;52.530;13.194;2023-03-29T04:20:46;3.20;99.90
39875;DHT22;25547;52.530;13.194;2023-03-29T04:23:13;3.10;99.90
39875;DHT22;25547;52.530;13.194;2023-03-29T04:25:40;3.10;99.90
39875;DHT22;25547;52.530;13.194;2023-03-29T04:28:06;3.10;99.90
39875;DHT22;25547;52.530;13.194;2023-03-29T04:30:36;3.10;99.90
39875;DHT22;25547;52.530;13.194;2023-03-29T04:33:02;3.10;99.90
39875;DHT22;25547;52.530;13.194;2023-03-29T04:35:28;3.10;99.90
39875;DHT22;25547;52.530;13.194;2023-03-29T04:37:59;3.00;99.90
39875;DHT22;25547;52.530;13.194;2023-03-29T04:40:24;3.00;99.90
39875;DHT22;25547;52.530;13.194;2023-03-29T04:42:50;3.00;99.90
39875;DHT22;25547;52.530;13.194;2023-03-29T04:45:16;3.00;99.90
39875;DHT22;25547;52.530;13.194;2023-03-29T04:47:43;3.00;99.90
39875;DHT22;25547;52.530;13.194;2023-03-29T04:50:10;2.90;99.90
39875;DHT22;25547;52.530;13.194;2023-03-29T04:52:38;2.90;99.90
39875;DHT22;25547;52.530;13.194;2023-03-29T04:55:05;2.90;99.90
39875;DHT22;25547;52.530;13.194;2023-03-29T04:57:33;2.80;99.90
39875;DHT22;25547;52.530;13.194;2023-03-29T04:59:59;2.90;99.90
39875;DHT22;25547;52.530;13.194;2023-03-29T05:02:25;2.90;99.90
39875;DHT22;25547;52.530;13.194;2023-03-29T05:04:51;2.80;99.90
39875;DHT22;25547;52.530;13.194;2023-03-29T05:07:17;2.80;99.90
39875;DHT22;25547;52.530;13.194;2023-03-29T05:09:46;2.80;99.90
39875;DHT22;25547;52.530;13.194;2023-03-29T05:12:14;2.80;99.90
39875;DHT22;25547;52.530;13.194;2023-03-29T05:14:44;2.80;99.90
39875;DHT22;25547;52.530;13.194;2023-03-29T05:17:10;2.90;99.90
39875;DHT22;25547;52.530;13.194;2023-03-29T05:19:35;2.90;99.90
39875;DHT22;25547;52.530;13.194;2023-03-29T05:22:02;2.90;99.90
39875;DHT22;25547;52.530;13.194;2023-03-29T05:24:28;2.90;99.90
39875;DHT22;25547;52.530;13.194;2023-03-29T05:26:54;2.90;99.90
39875;DHT22;25547;52.530;13.194;2023-03-29T05:29:21;2.90;99.90
39875;DHT22;25547;52.530;13.194;2023-03-29T05:31:48;3.00;99.90
39875;DHT22;25547;52.530;13.194;2023-03-29T05:34:16;3.00;99.90
39875;DHT22;25547;52.530;13.194;2023-03-29T05:36:44;3.10;99.90
39875;DHT22;25547;52.530;13.194;2023-03-29T05:39:13;3.10;99.90
39875;DHT22;25547;52.530;13.194;2023-03-29T05:41:39;3.20;99.90
39875;DHT22;25547;52.530;13.194;2023-03-29T05:44:06;3.20;99.90
39875;DHT22;25547;52.530;13.194;2023-03-29T05:46:31;3.30;99.90
39875;DHT22;25547;52.530;13.194;2023-03-29T05:48:57;3.40;99.90
39875;DHT22;25547;52.530;13.194;2023-03-29T05:51:25;3.40;99.90
39875;DHT22;25547;52.530;13.194;2023-03-29T05:53:54;3.50;99.90
39875;DHT22;25547;52.530;13.194;2023-03-29T05:56:19;3.60;99.90
39875;DHT22;25547;52.530;13.194;2023-03-29T05:58:48;3.60;99.90
39875;DHT22;25547;52.530;13.194;2023-03-29T06:01:14;3.70;99.90
39875;DHT22;25547;52.530;13.194;2023-03-29T06:03:42;3.80;99.90
39875;DHT22;25547;52.530;13.194;2023-03-29T06:06:10;3.80;99.90
39875;DHT22;25547;52.530;13.194;2023-03-29T06:08:38;3.90;99.90
39875;DHT22;25547;52.530;13.194;2023-03-29T06:11:05;4.00;99.80
39875;DHT22;25547;52.530;13.194;2023-03-29T06:13:33;4.00;99.60
39875;DHT22;25547;52.530;13.194;2023-03-29T06:16:02;4.10;99.70
39875;DHT22;25547;52.530;13.194;2023-03-29T06:18:28;4.10;99.60
39875;DHT22;25547;52.530;13.194;2023-03-29T06:20:56;4.30;99.60
39875;DHT22;25547;52.530;13.194;2023-03-29T06:23:22;4.40;99.50
39875;DHT22;25547;52.530;13.194;2023-03-29T06:25:51;4.50;99.00
39875;DHT22;25547;52.530;13.194;2023-03-29T06:28:17;4.40;98.90
39875;DHT22;25547;52.530;13.194;2023-03-29T06:30:44;4.40;98.80
39875;DHT22;25547;52.530;13.194;2023-03-29T06:33:13;4.50;99.20
39875;DHT22;25547;52.530;13.194;2023-03-29T06:35:42;4.60;98.90
39875;DHT22;25547;52.530;13.194;2023-03-29T06:38:08;4.60;98.50
39875;DHT22;25547;52.530;13.194;2023-03-29T06:40:34;4.70;98.60
39875;DHT22;25547;52.530;13.194;2023-03-29T06:43:03;4.80;98.40
39875;DHT22;25547;52.530;13.194;2023-03-29T06:45:35;4.80;98.10
39875;DHT22;25547;52.530;13.194;2023-03-29T06:48:02;4.80;98.20
39875;DHT22;25547;52.530;13.194;2023-03-29T06:50:28;4.80;97.90
39875;DHT22;25547;52.530;13.194;2023-03-29T06:52:57;4.90;98.00
39875;DHT22;25547;52.530;13.194;2023-03-29T06:55:23;5.10;97.70
39875;DHT22;25547;52.530;13.194;2023-03-29T06:57:49;5.20;97.10
39875;DHT22;25547;52.530;13.194;2023-03-29T07:00:15;5.40;96.90
39875;DHT22;25547;52.530;13.194;2023-03-29T07:02:52;5.30;96.50
39875;DHT22;25547;52.530;13.194;2023-03-29T07:05:18;5.00;96.50
39875;DHT22;25547;52.530;13.194;2023-03-29T07:07:45;5.20;96.80
39875;DHT22;25547;52.530;13.194;2023-03-29T07:10:43;5.30;96.50
39875;DHT22;25547;52.530;13.194;2023-03-29T07:13:10;5.40;96.50
39875;DHT22;25547;52.530;13.194;2023-03-29T07:15:38;5.50;96.20
39875;DHT22;25547;52.530;13.194;2023-03-29T07:18:10;5.40;96.40
39875;DHT22;25547;52.530;13.194;2023-03-29T07:20:37;5.40;96.50
39875;DHT22;25547;52.530;13.194;2023-03-29T07:23:03;5.40;96.80
39875;DHT22;25547;52.530;13.194;2023-03-29T07:25:31;5.60;96.70
39875;DHT22;25547;52.530;13.194;2023-03-29T07:28:00;5.80;96.60
39875;DHT22;25547;52.530;13.194;2023-03-29T07:30:29;5.80;96.30
39875;DHT22;25547;52.530;13.194;2023-03-29T07:32:55;6.00;95.80
39875;DHT22;25547;52.530;13.194;2023-03-29T07:35:25;6.00;95.70
39875;DHT22;25547;52.530;13.194;2023-03-29T07:37:51;6.00;95.60
39875;DHT22;25547;52.530;13.194;2023-03-29T07:40:20;6.10;95.60
39875;DHT22;25547;52.530;13.194;2023-03-29T07:42:57;6.30;95.10
39875;DHT22;25547;52.530;13.194;2023-03-29T07:45:29;6.20;95.10
39875;DHT22;25547;52.530;13.194;2023-03-29T07:48:01;6.30;95.30
39875;DHT22;25547;52.530;13.194;2023-03-29T07:50:27;6.40;95.00
39875;DHT22;25547;52.530;13.194;2023-03-29T07:52:53;6.70;95.10
39875;DHT22;25547;52.530;13.194;2023-03-29T07:55:19;6.70;94.50
39875;DHT22;25547;52.530;13.194;2023-03-29T07:57:45;6.90;94.40
39875;DHT22;25547;52.530;13.194;2023-03-29T08:00:12;7.10;94.20
39875;DHT22;25547;52.530;13.194;2023-03-29T08:02:42;7.60;93.70
39875;DHT22;25547;52.530;13.194;2023-03-29T08:05:11;7.70;92.50
39875;DHT22;25547;52.530;13.194;2023-03-29T08:07:38;7.80;92.20
39875;DHT22;25547;52.530;13.194;2023-03-29T08:10:09;8.00;92.00
39875;DHT22;25547;52.530;13.194;2023-03-29T08:12:38;8.20;91.00
39875;DHT22;25547;52.530;13.194;2023-03-29T08:15:04;8.50;90.70
39875;DHT22;25547;52.530;13.194;2023-03-29T08:17:33;8.70;90.60
39875;DHT22;25547;52.530;13.194;2023-03-29T08:19:59;8.90;89.90
39875;DHT22;25547;52.530;13.194;2023-03-29T08:22:25;9.10;89.40
39875;DHT22;25547;52.530;13.194;2023-03-29T08:24:51;9.60;87.60
39875;DHT22;25547;52.530;13.194;2023-03-29T08:27:20;9.60;85.40
39875;DHT22;25547;52.530;13.194;2023-03-29T08:29:46;10.10;83.00
39875;DHT22;25547;52.530;13.194;2023-03-29T08:32:12;11.90;78.10
39875;DHT22;25547;52.530;13.194;2023-03-29T08:34:38;15.00;69.00
39875;DHT22;25547;52.530;13.194;2023-03-29T08:37:04;15.90;59.70
39875;DHT22;25547;52.530;13.194;2023-03-29T08:39:30;14.40;60.20
39875;DHT22;25547;52.530;13.194;2023-03-29T08:42:00;13.70;63.00
39875;DHT22;25547;52.530;13.194;2023-03-29T08:49:40;14.80;61.40
39875;DHT22;25547;52.530;13.194;2023-03-29T08:52:34;16.00;60.00
39875;DHT22;25547;52.530;13.194;2023-03-29T08:55:06;15.40;58.70
39875;DHT22;25547;52.530;13.194;2023-03-29T08:57:44;15.90;60.20
39875;DHT22;25547;52.530;13.194;2023-03-29T09:02:55;16.00;58.10
39875;DHT22;25547;52.530;13.194;2023-03-29T09:05:31;16.10;57.30
39875;DHT22;25547;52.530;13.194;2023-03-29T09:07:58;15.80;57.30
39875;DHT22;25547;52.530;13.194;2023-03-29T09:10:39;14.70;59.90
39875;DHT22;25547;52.530;13.194;2023-03-29T09:13:25;14.60;62.20
39875;DHT22;25547;52.530;13.194;2023-03-29T09:16:07;13.80;63.20
39875;DHT22;25547;52.530;13.194;2023-03-29T09:22:11;12.80;67.90
39875;DHT22;25547;52.530;13.194;2023-03-29T09:27:47;12.10;72.20
39875;DHT22;25547;52.530;13.194;2023-03-29T09:30:25;11.70;74.30
39875;DHT22;25547;52.530;13.194;2023-03-29T09:38:54;11.00;75.30
39875;DHT22;25547;52.530;13.194;2023-03-29T09:44:13;10.50;77.90
39875;DHT22;25547;52.530;13.194;2023-03-29T09:46:43;10.50;78.60
39875;DHT22;25547;52.530;13.194;2023-03-29T09:49:17;10.40;78.80
39875;DHT22;25547;52.530;13.194;2023-03-29T09:51:47;10.30;79.20
39875;DHT22;25547;52.530;13.194;2023-03-29T09:54:13;10.30;79.00
39875;DHT22;25547;52.530;13.194;2023-03-29T09:56:39;10.30;79.80
39875;DHT22;25547;52.530;13.194;2023-03-29T09:59:05;10.30;79.40
39875;DHT22;25547;52.530;13.194;2023-03-29T10:01:39;10.50;81.70
39875;DHT22;25547;52.530;13.194;2023-03-29T10:04:08;10.40;81.00
39875;DHT22;25547;52.530;13.194;2023-03-29T10:06:44;10.30;82.00
39875;DHT22;25547;52.530;13.194;2023-03-29T10:09:22;10.40;81.90
39875;DHT22;25547;52.530;13.194;2023-03-29T10:11:56;10.50;82.20
39875;DHT22;25547;52.530;13.194;2023-03-29T10:14:33;10.60;82.00
39875;DHT22;25547;52.530;13.194;2023-03-29T10:17:04;10.60;81.90
39875;DHT22;25547;52.530;13.194;2023-03-29T10:19:34;10.50;82.90
39875;DHT22;25547;52.530;13.194;2023-03-29T10:22:07;10.60;82.00
39875;DHT22;25547;52.530;13.194;2023-03-29T10:24:38;10.70;83.50
39875;DHT22;25547;52.530;13.194;2023-03-29T10:27:09;11.00;81.30
39875;DHT22;25547;52.530;13.194;2023-03-29T10:29:40;10.90;80.70
39875;DHT22;25547;52.530;13.194;2023-03-29T10:32:33;10.90;82.00
39875;DHT22;25547;52.530;13.194;2023-03-29T10:37:47;10.70;82.00
39875;DHT22;25547;52.530;13.194;2023-03-29T10:40:32;10.70;82.20
39875;DHT22;25547;52.530;13.194;2023-03-29T10:43:20;11.10;82.70
39875;DHT22;25547;52.530;13.194;2023-03-29T10:45:52;11.20;82.30
39875;DHT22;25547;52.530;13.194;2023-03-29T10:48:24;11.20;80.10
39875;DHT22;25547;52.530;13.194;2023-03-29T10:50:52;10.90;80.30
39875;DHT22;25547;52.530;13.194;2023-03-29T10:53:35;10.70;81.50
39875;DHT22;25547;52.530;13.194;2023-03-29T11:10:03;11.30;80.00
39875;DHT22;25547;52.530;13.194;2023-03-29T11:12:41;11.40;80.40
39875;DHT22;25547;52.530;13.194;2023-03-29T11:26:00;11.10;82.60
39875;DHT22;25547;52.530;13.194;2023-03-29T11:28:42;11.40;81.80
39875;DHT22;25547;52.530;13.194;2023-03-29T11:42:27;11.50;81.00
39875;DHT22;25547;52.530;13.194;2023-03-29T11:45:02;11.50;81.10
39875;DHT22;25547;52.530;13.194;2023-03-29T11:47:34;11.30;80.70
39875;DHT22;25547;52.530;13.194;2023-03-29T11:50:23;11.20;80.10
39875;DHT22;25547;52.530;13.194;2023-03-29T11:52:58;11.20;81.10
39875;DHT22;25547;52.530;13.194;2023-03-29T11:55:35;11.30;81.50
39875;DHT22;25547;52.530;13.194;2023-03-29T11:58:09;11.50;79.80
39875;DHT22;25547;52.530;13.194;2023-03-29T12:06:00;11.60;80.00
39875;DHT22;25547;52.530;13.194;2023-03-29T12:08:30;11.70;81.50
39875;DHT22;25547;52.530;13.194;2023-03-29T12:13:35;11.70;79.60
39875;DHT22;25547;52.530;13.194;2023-03-29T12:18:45;11.30;80.20
39875;DHT22;25547;52.530;13.194;2023-03-29T12:21:22;11.20;79.90
39875;DHT22;25547;52.530;13.194;2023-03-29T12:23:51;11.20;80.00
39875;DHT22;25547;52.530;13.194;2023-03-29T12:32:47;11.20;80.40
39875;DHT22;25547;52.530;13.194;2023-03-29T12:40:19;11.10;81.50
39875;DHT22;25547;52.530;13.194;2023-03-29T12:43:01;11.20;81.80
39875;DHT22;25547;52.530;13.194;2023-03-29T12:45:36;11.30;81.60
39875;DHT22;25547;52.530;13.194;2023-03-29T12:48:03;11.30;81.30
39875;DHT22;25547;52.530;13.194;2023-03-29T12:50:33;11.20;81.10
39875;DHT22;25547;52.530;13.194;2023-03-29T12:53:24;11.30;81.00
39875;DHT22;25547;52.530;13.194;2023-03-29T13:01:02;11.50;80.30
39875;DHT22;25547;52.530;13.194;2023-03-29T13:03:40;11.40;80.30
39875;DHT22;25547;52.530;13.194;2023-03-29T13:06:11;11.40;79.80
39875;DHT22;25547;52.530;13.194;2023-03-29T13:11:04;11.70;79.20
39875;DHT22;25547;52.530;13.194;2023-03-29T13:13:37;11.60;78.30
39875;DHT22;25547;52.530;13.194;2023-03-29T13:16:18;11.40;78.60
39875;DHT22;25547;52.530;13.194;2023-03-29T13:27:52;11.30;78.80
39875;DHT22;25547;52.530;13.194;2023-03-29T13:38:49;11.30;79.20
39875;DHT22;25547;52.530;13.194;2023-03-29T13:41:48;11.10;78.60
39875;DHT22;25547;52.530;13.194;2023-03-29T13:44:40;11.20;79.20
39875;DHT22;25547;52.530;13.194;2023-03-29T13:49:57;11.30;79.10
39875;DHT22;25547;52.530;13.194;2023-03-29T13:52:29;11.30;79.10
39875;DHT22;25547;52.530;13.194;2023-03-29T13:57:37;11.40;80.60
39875;DHT22;25547;52.530;13.194;2023-03-29T14:02:42;11.30;79.70
39875;DHT22;25547;52.530;13.194;2023-03-29T14:05:16;11.40;80.10
39875;DHT22;25547;52.530;13.194;2023-03-29T14:07:51;11.40;79.90
39875;DHT22;25547;52.530;13.194;2023-03-29T14:10:25;11.40;79.60
39875;DHT22;25547;52.530;13.194;2023-03-29T14:12:52;11.20;80.50
39875;DHT22;25547;52.530;13.194;2023-03-29T14:15:21;11.20;81.20
39875;DHT22;25547;52.530;13.194;2023-03-29T14:17:52;11.10;81.70
39875;DHT22;25547;52.530;13.194;2023-03-29T14:20:18;11.00;82.20
39875;DHT22;25547;52.530;13.194;2023-03-29T14:22:45;11.00;82.90
39875;DHT22;25547;52.530;13.194;2023-03-29T14:25:13;11.10;82.70
39875;DHT22;25547;52.530;13.194;2023-03-29T14:27:40;11.10;82.50
39875;DHT22;25547;52.530;13.194;2023-03-29T14:30:27;11.10;82.70
39875;DHT22;25547;52.530;13.194;2023-03-29T14:32:53;11.10;83.40
39875;DHT22;25547;52.530;13.194;2023-03-29T14:35:28;11.00;83.30
39875;DHT22;25547;52.530;13.194;2023-03-29T14:37:55;11.10;83.70
39875;DHT22;25547;52.530;13.194;2023-03-29T14:40:23;11.10;83.90
39875;DHT22;25547;52.530;13.194;2023-03-29T14:42:53;11.20;84.40
39875;DHT22;25547;52.530;13.194;2023-03-29T14:45:21;11.20;83.50
39875;DHT22;25547;52.530;13.194;2023-03-29T14:47:52;11.20;84.70
39875;DHT22;25547;52.530;13.194;2023-03-29T14:50:28;11.20;84.00
39875;DHT22;25547;52.530;13.194;2023-03-29T14:52:57;11.20;83.80
39875;DHT22;25547;52.530;13.194;2023-03-29T14:55:23;11.10;84.60
39875;DHT22;25547;52.530;13.194;2023-03-29T14:57:52;11.20;84.60
39875;DHT22;25547;52.530;13.194;2023-03-29T15:02:48;11.20;85.60
39875;DHT22;25547;52.530;13.194;2023-03-29T15:05:36;11.30;85.70
39875;DHT22;25547;52.530;13.194;2023-03-29T15:08:04;11.20;85.40
39875;DHT22;25547;52.530;13.194;2023-03-29T15:10:36;11.10;86.90
39875;DHT22;25547;52.530;13.194;2023-03-29T15:13:03;10.90;88.90
39875;DHT22;25547;52.530;13.194;2023-03-29T15:15:31;10.90;89.50
39875;DHT22;25547;52.530;13.194;2023-03-29T15:18:04;11.10;89.60
39875;DHT22;25547;52.530;13.194;2023-03-29T15:20:37;11.20;89.50
39875;DHT22;25547;52.530;13.194;2023-03-29T15:25:55;11.10;88.50
39875;DHT22;25547;52.530;13.194;2023-03-29T15:28:26;11.10;89.30
39875;DHT22;25547;52.530;13.194;2023-03-29T15:31:08;11.10;89.20
39875;DHT22;25547;52.530;13.194;2023-03-29T15:33:39;11.20;88.50
39875;DHT22;25547;52.530;13.194;2023-03-29T15:36:06;11.30;88.70
39875;DHT22;25547;52.530;13.194;2023-03-29T15:38:33;11.40;88.50
39875;DHT22;25547;52.530;13.194;2023-03-29T15:41:03;11.30;89.40
39875;DHT22;25547;52.530;13.194;2023-03-29T15:43:29;11.30;88.30
39875;DHT22;25547;52.530;13.194;2023-03-29T15:45:55;11.30;88.10
39875;DHT22;25547;52.530;13.194;2023-03-29T15:48:26;11.30;88.30
39875;DHT22;25547;52.530;13.194;2023-03-29T15:50:52;11.40;88.50
39875;DHT22;25547;52.530;13.194;2023-03-29T15:53:19;11.40;88.30
39875;DHT22;25547;52.530;13.194;2023-03-29T15:55:49;11.30;88.30
39875;DHT22;25547;52.530;13.194;2023-03-29T15:58:18;11.30;88.40
39875;DHT22;25547;52.530;13.194;2023-03-29T16:00:50;11.30;88.60
39875;DHT22;25547;52.530;13.194;2023-03-29T16:03:16;11.20;88.90
39875;DHT22;25547;52.530;13.194;2023-03-29T16:05:43;11.20;89.40
39875;DHT22;25547;52.530;13.194;2023-03-29T16:08:10;11.20;89.40
39875;DHT22;25547;52.530;13.194;2023-03-29T16:10:36;11.20;89.90
39875;DHT22;25547;52.530;13.194;2023-03-29T16:13:02;11.20;90.00
39875;DHT22;25547;52.530;13.194;2023-03-29T16:15:30;11.20;89.70
39875;DHT22;25547;52.530;13.194;2023-03-29T16:17:56;11.20;90.00
39875;DHT22;25547;52.530;13.194;2023-03-29T16:20:24;11.20;89.80
39875;DHT22;25547;52.530;13.194;2023-03-29T16:22:50;11.30;90.00
39875;DHT22;25547;52.530;13.194;2023-03-29T16:25:20;11.30;90.00
39875;DHT22;25547;52.530;13.194;2023-03-29T16:27:50;11.30;90.40
39875;DHT22;25547;52.530;13.194;2023-03-29T16:30:15;11.20;90.40
39875;DHT22;25547;52.530;13.194;2023-03-29T16:32:46;11.20;90.40
39875;DHT22;25547;52.530;13.194;2023-03-29T16:35:24;11.10;90.60
39875;DHT22;25547;52.530;13.194;2023-03-29T16:37:51;11.10;90.80
39875;DHT22;25547;52.530;13.194;2023-03-29T16:40:16;11.00;91.10
39875;DHT22;25547;52.530;13.194;2023-03-29T16:42:45;11.00;91.50
39875;DHT22;25547;52.530;13.194;2023-03-29T16:45:12;11.00;91.60
39875;DHT22;25547;52.530;13.194;2023-03-29T16:47:39;11.10;91.60
39875;DHT22;25547;52.530;13.194;2023-03-29T16:50:12;11.10;92.00
39875;DHT22;25547;52.530;13.194;2023-03-29T16:52:39;11.00;91.80
39875;DHT22;25547;52.530;13.194;2023-03-29T16:55:05;11.00;92.00
39875;DHT22;25547;52.530;13.194;2023-03-29T16:57:34;11.00;92.00
39875;DHT22;25547;52.530;13.194;2023-03-29T17:00:00;11.00;92.30
39875;DHT22;25547;52.530;13.194;2023-03-29T17:02:26;11.00;92.30
39875;DHT22;25547;52.530;13.194;2023-03-29T17:04:54;11.00;92.20
39875;DHT22;25547;52.530;13.194;2023-03-29T17:07:21;11.00;92.10
39875;DHT22;25547;52.530;13.194;2023-03-29T17:09:49;11.00;92.30
39875;DHT22;25547;52.530;13.194;2023-03-29T17:12:15;11.00;92.20
39875;DHT22;25547;52.530;13.194;2023-03-29T17:14:41;11.00;92.30
39875;DHT22;25547;52.530;13.194;2023-03-29T17:17:13;11.00;92.40
39875;DHT22;25547;52.530;13.194;2023-03-29T17:19:39;11.00;92.30
39875;DHT22;25547;52.530;13.194;2023-03-29T17:22:07;11.00;92.40
39875;DHT22;25547;52.530;13.194;2023-03-29T17:24:33;11.00;92.50
39875;DHT22;25547;52.530;13.194;2023-03-29T17:26:58;11.00;92.70
39875;DHT22;25547;52.530;13.194;2023-03-29T17:29:24;11.00;92.60
39875;DHT22;25547;52.530;13.194;2023-03-29T17:31:53;11.00;92.60
39875;DHT22;25547;52.530;13.194;2023-03-29T17:34:18;11.00;92.70
39875;DHT22;25547;52.530;13.194;2023-03-29T17:36:45;11.00;93.10
39875;DHT22;25547;52.530;13.194;2023-03-29T17:39:11;11.00;92.90
39875;DHT22;25547;52.530;13.194;2023-03-29T17:41:42;11.00;93.10
39875;DHT22;25547;52.530;13.194;2023-03-29T17:44:08;11.00;93.10
39875;DHT22;25547;52.530;13.194;2023-03-29T17:46:33;11.00;93.10
39875;DHT22;25547;52.530;13.194;2023-03-29T17:48:59;11.00;93.10
39875;DHT22;25547;52.530;13.194;2023-03-29T17:51:25;11.00;93.10
39875;DHT22;25547;52.530;13.194;2023-03-29T17:53:52;11.00;93.20